Time;durP1;ratioP1;P1;durP2;ratioP2;P2;SDS_P1;SDS_P2;PMS_P1;PMS_P2;Temp;Humidity;BMP_temperature;BMP_pressure;BME280_temperature;BME280_humidity;BME280_pressure;Samples;Min_cycle;Max_cycle;Signal;HPM_P1;HPM_P2
2021/11/10 00:00:16;;;;;;;4.47;2.83;;;;;;;13.60;49.71;101729.53;1780055;80;21053;-65
2021/11/10 00:02:42;;;;;;;4.50;3.35;;;;;;;13.57;49.69;101731.50;1779666;80;22249;-64
2021/11/10 00:05:09;;;;;;;3.92;3.40;;;;;;;13.56;49.67;101727.16;1774656;80;21041;-64
2021/11/10 00:07:36;;;;;;;5.30;3.90;;;;;;;13.55;49.66;101732.13;1775770;80;21077;-64
2021/11/10 00:10:04;;;;;;;4.03;3.62;;;;;;;13.54;49.64;101742.94;1778015;80;21024;-65
2021/11/10 00:12:31;;;;;;;3.75;2.95;;;;;;;13.52;49.66;101740.44;1776237;80;21044;-64
2021/11/10 00:14:59;;;;;;;4.62;3.60;;;;;;;13.50;49.64;101743.73;1782945;79;21140;-63
2021/11/10 00:17:26;;;;;;;3.67;3.02;;;;;;;13.50;49.63;101745.53;1787790;79;21006;-64
2021/11/10 00:19:53;;;;;;;3.42;3.08;;;;;;;13.47;49.63;101746.67;1783539;79;21064;-64
2021/11/10 00:22:19;;;;;;;4.05;3.60;;;;;;;13.47;49.60;101755.18;1787334;79;21037;-63
2021/11/10 00:24:46;;;;;;;3.75;3.33;;;;;;;13.45;49.62;101753.97;1788101;79;21057;-64
2021/11/10 00:27:12;;;;;;;4.12;3.25;;;;;;;13.43;49.59;101761.28;1786511;79;21057;-64
2021/11/10 00:29:39;;;;;;;4.17;3.60;;;;;;;13.42;49.58;101755.57;1785842;79;21022;-64
2021/11/10 00:32:07;;;;;;;4.45;3.37;;;;;;;13.41;49.60;101763.24;1789156;79;21651;-63
2021/11/10 00:34:35;;;;;;;3.80;3.30;;;;;;;13.40;49.59;101765.55;1783305;80;21049;-63
2021/11/10 00:37:02;;;;;;;3.98;3.55;;;;;;;13.40;49.57;101767.38;1782573;80;21505;-64
2021/11/10 00:39:28;;;;;;;4.42;3.27;;;;;;;13.39;49.54;101772.38;1784665;80;22069;-64
2021/11/10 00:41:54;;;;;;;4.17;3.67;;;;;;;13.18;49.53;101744.74;1779889;79;21577;-64
2021/11/10 00:44:21;;;;;;;3.87;3.25;;;;;;;13.36;49.53;101773.48;1781450;80;21072;-64
2021/11/10 00:46:47;;;;;;;4.33;3.30;;;;;;;13.34;49.53;101781.62;1781139;80;21006;-63
2021/11/10 00:49:14;;;;;;;3.80;3.40;;;;;;;13.33;49.54;101787.12;1806142;79;21380;-64
2021/11/10 00:51:40;;;;;;;4.17;3.77;;;;;;;13.32;49.51;101788.08;1809453;79;21087;-65
2021/11/10 00:54:09;;;;;;;4.33;3.65;;;;;;;13.30;49.51;101779.37;1780770;80;21084;-63
2021/11/10 00:56:35;;;;;;;4.12;3.50;;;;;;;13.29;49.50;101773.63;1774944;78;21127;-63
2021/11/10 00:59:02;;;;;;;4.25;3.45;;;;;;;13.28;49.50;101762.12;1816356;77;21061;-64
2021/11/10 01:01:28;;;;;;;5.08;4.00;;;;;;;13.26;49.48;101768.58;1783965;79;21084;-64
2021/11/10 01:03:55;;;;;;;4.87;3.52;;;;;;;13.25;49.48;101771.75;1813102;78;21284;-64
2021/11/10 01:06:23;;;;;;;4.60;3.52;;;;;;;13.24;49.45;101767.38;1810443;78;21037;-64
2021/11/10 01:08:52;;;;;;;4.60;3.58;;;;;;;13.23;49.50;101758.16;1828137;77;20974;-64
2021/11/10 01:11:17;;;;;;;3.80;2.90;;;;;;;13.22;49.44;101761.33;1774940;78;21577;-63
2021/11/10 01:13:45;;;;;;;4.25;3.70;;;;;;;13.21;49.43;101774.80;1807807;78;21542;-63
2021/11/10 01:16:13;;;;;;;4.17;3.35;;;;;;;13.20;49.44;101782.48;1749199;78;21089;-64
2021/11/10 01:18:40;;;;;;;4.20;3.58;;;;;;;13.17;49.44;101784.44;1753526;79;21036;-63
2021/11/10 01:21:07;;;;;;;4.70;3.58;;;;;;;13.17;49.43;101789.77;1763191;79;21108;-63
2021/11/10 01:23:34;;;;;;;4.12;3.47;;;;;;;13.15;49.42;101801.08;1751900;79;21975;-64
2021/11/10 01:26:00;;;;;;;4.58;3.75;;;;;;;13.14;49.42;101802.04;1764556;79;21017;-63
2021/11/10 01:28:27;;;;;;;4.25;3.67;;;;;;;13.13;49.39;101812.84;1750154;79;21066;-63
2021/11/10 01:30:53;;;;;;;4.00;3.70;;;;;;;13.12;49.40;101810.67;1762819;79;21029;-64
2021/11/10 01:33:21;;;;;;;3.80;3.40;;;;;;;13.11;49.38;101803.63;1750247;79;21044;-65
2021/11/10 01:35:48;;;;;;;4.25;3.67;;;;;;;13.10;49.39;101808.62;1750511;79;21013;-64
2021/11/10 01:38:16;;;;;;;3.87;3.47;;;;;;;13.08;49.38;101805.25;1754591;79;21033;-64
2021/11/10 01:40:44;;;;;;;4.75;3.75;;;;;;;13.08;49.37;101799.08;1753853;79;21141;-64
2021/11/10 01:43:17;;;;;;;4.37;3.87;;;;;;;13.07;49.36;101796.88;1754944;79;21095;-64
2021/11/10 01:45:46;;;;;;;4.22;3.45;;;;;;;13.05;49.37;101804.17;1752434;79;21040;-64
2021/11/10 01:48:15;;;;;;;4.90;3.37;;;;;;;13.04;49.34;101813.17;1760090;81;21036;-64
2021/11/10 01:50:42;;;;;;;4.15;3.62;;;;;;;13.02;49.34;101809.80;1747693;79;21056;-64
2021/11/10 01:53:09;;;;;;;4.08;3.45;;;;;;;13.02;49.34;101807.13;1730241;81;21150;-64
2021/11/10 01:55:36;;;;;;;4.05;3.45;;;;;;;13.02;49.33;101796.92;1761128;79;21056;-63
2021/11/10 01:58:03;;;;;;;4.08;3.67;;;;;;;13.01;49.29;101781.91;1754024;79;21072;-64
2021/11/10 02:00:33;;;;;;;4.12;3.60;;;;;;;12.99;49.30;101776.70;1758119;79;21099;-64
2021/11/10 02:03:05;;;;;;;4.17;3.60;;;;;;;12.98;49.28;101785.20;1757843;79;21012;-64
2021/11/10 02:05:34;;;;;;;4.03;3.55;;;;;;;12.98;49.28;101785.70;1752396;79;21095;-63
2021/11/10 02:08:01;;;;;;;4.42;3.50;;;;;;;12.97;49.26;101788.00;1750349;79;20994;-65
2021/11/10 02:10:29;;;;;;;4.45;3.75;;;;;;;12.94;49.25;101790.45;1749834;79;21054;-65
2021/11/10 02:12:58;;;;;;;5.33;3.75;;;;;;;12.95;49.25;101803.30;1766072;79;20997;-63
2021/11/10 02:15:25;;;;;;;4.87;3.80;;;;;;;12.93;49.25;101803.92;1763829;79;21068;-64
2021/11/10 02:17:56;;;;;;;4.22;3.58;;;;;;;12.92;49.25;101804.88;1750895;80;21034;-64
2021/11/10 02:20:25;;;;;;;4.60;3.37;;;;;;;12.90;49.23;101808.17;1783044;79;21017;-64
2021/11/10 02:22:53;;;;;;;4.80;4.25;;;;;;;12.88;49.23;101814.97;1745495;81;20993;-64
2021/11/10 02:25:19;;;;;;;4.37;3.55;;;;;;;12.88;49.24;101816.80;1760780;80;20987;-64
2021/11/10 02:27:46;;;;;;;4.60;3.45;;;;;;;12.86;49.22;101819.59;1763939;79;21492;-64
2021/11/10 02:30:18;;;;;;;4.80;3.75;;;;;;;12.86;49.19;101820.09;1783185;80;21939;-64
2021/11/10 02:32:47;;;;;;;;;;;;;;;12.85;49.20;101819.75;1793470;79;21030;-63
2021/11/10 02:35:23;;;;;;;4.08;3.67;;;;;;;12.84;49.19;101812.71;1775096;79;20193;-64
2021/11/10 02:37:58;;;;;;;4.03;3.62;;;;;;;12.79;49.27;101822.45;1814536;78;20990;-64
2021/11/10 02:40:25;;;;;;;5.50;4.17;;;;;;;12.78;49.25;101830.08;1797200;78;21029;-63
2021/11/10 02:42:52;;;;;;;4.00;3.52;;;;;;;12.77;49.28;101826.58;1785038;78;21177;-64
2021/11/10 02:45:21;;;;;;;4.85;3.83;;;;;;;12.77;49.24;101815.91;1809293;78;21029;-64
2021/11/10 02:47:47;;;;;;;5.15;4.25;;;;;;;12.77;49.22;101821.24;1771460;78;21017;-64
2021/11/10 02:50:14;;;;;;;3.72;3.33;;;;;;;12.76;49.22;101819.54;1797270;78;21406;-64
2021/11/10 02:52:41;;;;;;;5.05;3.55;;;;;;;12.76;49.19;101823.54;1786478;79;21021;-64
2021/11/10 02:55:07;;;;;;;5.25;4.33;;;;;;;12.76;49.20;101818.70;1779670;79;21133;-64
2021/11/10 02:57:34;;;;;;;4.17;3.50;;;;;;;12.75;49.20;101821.87;1799122;79;21336;-63
2021/11/10 03:00:04;;;;;;;4.85;3.50;;;;;;;12.75;49.17;101825.03;1801056;79;21493;-63
2021/11/10 03:02:31;;;;;;;4.47;3.98;;;;;;;12.75;49.15;101817.03;1793005;78;21016;-64
2021/11/10 03:04:59;;;;;;;4.65;4.08;;;;;;;12.74;49.16;101825.50;1794109;78;21041;-64
2021/11/10 03:07:26;;;;;;;4.50;3.95;;;;;;;12.73;49.13;101821.66;1789535;78;21141;-64
2021/11/10 03:09:55;;;;;;;4.25;3.47;;;;;;;12.73;49.11;101838.49;1792761;78;21102;-63
2021/11/10 03:12:23;;;;;;;4.22;3.27;;;;;;;12.73;49.10;101845.16;1792229;78;21057;-64
2021/11/10 03:14:50;;;;;;;4.50;4.08;;;;;;;12.73;49.10;101845.16;1789476;78;21219;-63
2021/11/10 03:17:18;;;;;;;4.75;3.80;;;;;;;12.73;49.06;101852.32;1765166;80;21025;-64
2021/11/10 03:19:47;;;;;;;4.20;3.40;;;;;;;12.71;49.05;101848.45;1776659;80;21131;-65
2021/11/10 03:22:15;;;;;;;4.10;3.70;;;;;;;12.71;49.04;101852.45;1770765;80;21773;-63
2021/11/10 03:24:44;;;;;;;4.42;3.83;;;;;;;12.69;49.02;101840.20;1766056;80;21064;-64
2021/11/10 03:27:11;;;;;;;4.62;4.10;;;;;;;12.70;49.00;101844.07;1766022;79;21029;-64
2021/11/10 03:29:40;;;;;;;4.80;4.03;;;;;;;12.69;49.00;101847.73;1776893;80;21030;-64
2021/11/10 03:32:08;;;;;;;5.10;3.77;;;;;;;12.69;48.99;101842.86;1765221;80;21142;-64
2021/11/10 03:34:35;;;;;;;3.95;3.55;;;;;;;12.69;48.96;101850.86;1767603;80;21081;-63
2021/11/10 03:37:04;;;;;;;4.22;3.70;;;;;;;12.68;48.98;101846.03;1775264;80;21054;-63
2021/11/10 03:39:32;;;;;;;4.17;3.52;;;;;;;12.68;48.96;101835.36;1764592;80;21120;-64
2021/11/10 03:41:59;;;;;;;4.12;3.65;;;;;;;12.66;48.94;101833.31;1771501;80;21543;-64
2021/11/10 03:44:26;;;;;;;6.10;3.62;;;;;;;12.66;48.90;101835.98;1770129;80;22362;-64
2021/11/10 03:46:54;;;;;;;4.85;4.12;;;;;;;12.66;48.90;101837.81;1742475;80;21072;-64
2021/11/10 03:49:21;;;;;;;3.83;3.35;;;;;;;12.66;48.89;101836.48;1771725;80;21025;-64
2021/11/10 03:51:48;;;;;;;5.08;3.70;;;;;;;12.65;48.87;101834.30;1754062;80;20998;-63
2021/11/10 03:54:16;;;;;;;3.90;3.50;;;;;;;12.64;48.87;101835.27;1765625;80;21497;-63
2021/11/10 03:56:44;;;;;;;5.12;3.77;;;;;;;12.63;48.84;101838.89;1753145;80;21149;-63
2021/11/10 03:59:11;;;;;;;4.58;3.45;;;;;;;12.63;48.84;101836.23;1767270;80;21091;-63
2021/11/10 04:01:40;;;;;;;4.45;3.55;;;;;;;12.61;48.84;101842.18;1764926;80;20998;-63
2021/11/10 04:04:07;;;;;;;4.20;3.80;;;;;;;12.61;48.82;101844.84;1757839;80;21057;-64
2021/11/10 04:06:35;;;;;;;5.95;3.67;;;;;;;12.60;48.81;101845.84;1775865;80;22042;-64
2021/11/10 04:09:03;;;;;;;5.15;3.98;;;;;;;12.60;48.80;101849.84;1755220;80;23276;-64
2021/11/10 04:11:29;;;;;;;4.72;4.12;;;;;;;12.59;48.81;101858.80;1751785;80;20990;-64
2021/11/10 04:13:56;;;;;;;4.33;3.77;;;;;;;12.58;48.80;101857.13;1766794;80;21369;-64
2021/11/10 04:16:22;;;;;;;3.62;3.25;;;;;;;12.57;48.78;101848.75;1765032;80;21821;-64
2021/11/10 04:18:52;;;;;;;4.28;3.50;;;;;;;12.56;48.79;101849.74;1772907;80;21049;-64
2021/11/10 04:21:22;;;;;;;4.47;3.62;;;;;;;12.55;48.75;101849.38;1793689;78;21026;-63
2021/11/10 04:23:52;;;;;;;4.00;3.60;;;;;;;12.53;48.78;101854.83;1772669;80;20971;-64
2021/11/10 04:26:21;;;;;;;4.47;3.90;;;;;;;12.53;48.76;101851.33;1792114;78;21006;-63
2021/11/10 04:28:47;;;;;;;4.62;4.12;;;;;;;12.51;48.75;101843.45;1796301;78;21022;-63
2021/11/10 04:31:15;;;;;;;5.92;4.33;;;;;;;12.50;48.76;101840.94;1776165;80;21130;-64
2021/11/10 04:33:43;;;;;;;5.35;4.33;;;;;;;12.49;48.74;101844.56;1773696;80;21220;-64
2021/11/10 04:36:09;;;;;;;4.50;3.77;;;;;;;12.48;48.77;101839.73;1812287;78;21053;-64
2021/11/10 04:38:39;;;;;;;4.83;3.70;;;;;;;12.48;48.74;101841.55;1791952;78;21033;-63
2021/11/10 04:41:05;;;;;;;5.30;3.67;;;;;;;12.45;48.73;101847.97;1793808;78;21061;-64
2021/11/10 04:43:32;;;;;;;5.37;4.05;;;;;;;12.46;48.74;101849.67;1774890;80;21062;-64
2021/11/10 04:46:42;;;;;;;5.05;3.90;;;;;;;12.45;48.72;101847.97;1793679;79;21091;-64
2021/11/10 04:48:30;;;;;;;5.30;4.37;;;;;;;12.45;48.70;101840.47;1760819;80;21095;-63
2021/11/10 04:50:57;;;;;;;4.37;3.75;;;;;;;12.44;48.69;101840.09;1806800;79;21041;-65
2021/11/10 04:53:23;;;;;;;4.75;3.85;;;;;;;12.43;48.68;101843.75;1775124;80;21064;-64
2021/11/10 04:55:51;;;;;;;4.60;4.10;;;;;;;12.42;48.65;101842.05;1775949;80;21040;-64
2021/11/10 04:58:17;;;;;;;4.72;3.50;;;;;;;12.42;48.67;101842.91;1779104;79;21126;-63
2021/11/10 05:00:46;;;;;;;4.72;3.90;;;;;;;12.41;48.64;101836.38;1809105;79;21506;-64
2021/11/10 05:03:13;;;;;;;5.28;4.40;;;;;;;12.39;48.64;101834.66;1779126;79;21034;-64
2021/11/10 05:05:40;;;;;;;4.65;3.72;;;;;;;12.38;48.63;101840.98;1773524;80;21065;-64
2021/11/10 05:08:06;;;;;;;6.08;4.55;;;;;;;12.38;48.62;101838.32;1806588;79;21076;-64
2021/11/10 05:10:33;;;;;;;4.62;4.05;;;;;;;12.37;48.63;101837.95;1803746;79;23225;-65
2021/11/10 05:13:02;;;;;;;5.17;4.12;;;;;;;12.36;48.61;101842.94;1806418;79;21021;-65
2021/11/10 05:15:28;;;;;;;5.75;4.85;;;;;;;12.36;48.60;101839.41;1810226;77;21175;-65
2021/11/10 05:17:55;;;;;;;5.25;3.83;;;;;;;12.36;48.60;101860.27;1764270;80;21041;-64
2021/11/10 05:20:23;;;;;;;5.15;3.90;;;;;;;12.35;48.55;101858.55;1809322;78;21259;-65
2021/11/10 05:22:50;;;;;;;4.53;3.67;;;;;;;12.35;48.55;101869.22;1772111;79;21134;-64
2021/11/10 05:25:16;;;;;;;5.40;4.60;;;;;;;12.34;48.58;101876.88;1805652;77;21204;-64
2021/11/10 05:27:43;;;;;;;5.22;4.50;;;;;;;12.34;48.56;101878.20;1784851;80;21065;-63
2021/11/10 05:30:10;;;;;;;4.67;4.28;;;;;;;12.35;48.55;101879.05;1785110;79;21128;-64
2021/11/10 05:32:37;;;;;;;4.95;4.37;;;;;;;12.35;48.53;101888.38;1781357;79;21041;-64
2021/11/10 05:35:04;;;;;;;5.95;4.53;;;;;;;12.34;48.55;101877.34;1781072;80;21134;-64
2021/11/10 05:37:30;;;;;;;5.67;4.70;;;;;;;12.35;48.53;101891.04;1780089;80;21080;-63
2021/11/10 05:39:57;;;;;;;5.05;4.40;;;;;;;12.35;48.51;101882.55;1786324;78;21069;-64
2021/11/10 05:42:25;;;;;;;5.53;4.58;;;;;;;12.34;48.52;101884.87;1772915;80;21768;-63
2021/11/10 05:44:52;;;;;;;6.03;4.92;;;;;;;12.35;48.50;101888.38;1775056;80;21052;-64
2021/11/10 05:47:19;;;;;;;5.35;4.00;;;;;;;12.35;48.52;101893.70;1780704;80;21271;-63
2021/11/10 05:49:45;;;;;;;5.58;4.37;;;;;;;12.35;48.52;101899.88;1781262;80;21061;-64
2021/11/10 05:52:11;;;;;;;5.70;4.67;;;;;;;12.36;48.50;101895.38;1784299;80;21006;-64
2021/11/10 05:54:39;;;;;;;6.72;4.37;;;;;;;12.36;48.51;101898.91;1776190;80;21395;-64
2021/11/10 05:57:07;;;;;;;5.28;4.60;;;;;;;12.37;48.48;101893.92;1779213;79;21085;-64
2021/11/10 05:59:34;;;;;;;4.45;4.05;;;;;;;12.38;48.44;101901.42;1804578;78;21101;-64
2021/11/10 06:02:01;;;;;;;5.30;4.47;;;;;;;12.39;48.43;101905.30;1788090;80;21026;-64
2021/11/10 06:04:27;;;;;;;5.85;4.75;;;;;;;12.39;48.38;101903.97;1786534;78;21042;-65
2021/11/10 06:06:53;;;;;;;5.65;4.80;;;;;;;12.41;48.36;101904.34;1798679;78;21002;-66
2021/11/10 06:09:20;;;;;;;6.03;4.40;;;;;;;12.40;48.32;101908.84;1782902;79;21057;-64
2021/11/10 06:11:48;;;;;;;4.83;4.30;;;;;;;12.41;48.33;101909.18;1801608;78;21840;-65
2021/11/10 06:14:14;;;;;;;5.28;4.58;;;;;;;12.41;48.32;101905.67;1798930;79;21040;-64
2021/11/10 06:16:41;;;;;;;4.97;4.40;;;;;;;12.41;48.33;101906.52;1763525;79;21037;-65
2021/11/10 06:19:09;;;;;;;5.28;4.45;;;;;;;12.42;48.31;101917.55;1769931;80;21049;-65
2021/11/10 06:21:36;;;;;;;5.92;4.55;;;;;;;12.42;48.26;101905.55;1761990;81;21085;-64
2021/11/10 06:24:03;;;;;;;5.33;4.67;;;;;;;12.43;48.27;101913.06;1759958;81;21817;-64
2021/11/10 06:26:31;;;;;;;5.72;4.42;;;;;;;12.44;48.24;101906.73;1750620;81;21064;-64
2021/11/10 06:28:57;;;;;;;5.58;4.55;;;;;;;12.45;48.21;101900.45;1764027;81;21101;-64
2021/11/10 06:31:23;;;;;;;5.62;4.53;;;;;;;12.45;48.18;101905.28;1758939;81;21101;-63
2021/11/10 06:33:50;;;;;;;5.97;4.45;;;;;;;12.46;48.21;101904.79;1759749;79;21013;-65
2021/11/10 06:36:17;;;;;;;5.85;4.72;;;;;;;12.46;48.17;101901.66;1771558;81;21148;-65
2021/11/10 06:38:46;;;;;;;6.00;4.92;;;;;;;12.47;48.18;101899.34;1775766;80;21077;-65
2021/11/10 06:41:18;;;;;;;5.75;5.10;;;;;;;12.48;48.15;101904.20;1755948;81;21037;-64
2021/11/10 06:43:43;;;;;;;5.58;4.87;;;;;;;12.49;48.15;101908.05;1742207;81;21017;-65
2021/11/10 06:46:10;;;;;;;5.80;5.05;;;;;;;12.51;48.12;101902.59;1763752;81;21057;-64
2021/11/10 06:48:36;;;;;;;5.72;4.75;;;;;;;12.51;48.12;101899.93;1771397;81;21146;-66
2021/11/10 06:51:03;;;;;;;5.05;4.55;;;;;;;12.53;48.11;101905.98;1769399;79;21523;-64
2021/11/10 06:53:29;;;;;;;4.80;4.30;;;;;;;12.54;48.09;101906.35;1746972;79;21120;-63
2021/11/10 06:55:56;;;;;;;5.28;4.35;;;;;;;12.56;48.05;101901.23;1760953;81;21488;-64
2021/11/10 06:58:22;;;;;;;5.87;4.87;;;;;;;12.57;48.04;101908.28;1765636;81;21521;-64
2021/11/10 07:00:49;;;;;;;7.15;5.58;;;;;;;12.57;48.02;101900.28;1781632;79;21545;-66
2021/11/10 07:03:17;;;;;;;7.20;5.20;;;;;;;12.58;48.02;101900.63;1776374;79;21560;-65
2021/11/10 07:05:43;;;;;;;5.80;4.80;;;;;;;12.60;48.00;101888.50;1774677;80;21516;-64
2021/11/10 07:08:10;;;;;;;5.75;4.87;;;;;;;12.61;47.95;101888.84;1767124;79;21026;-65
2021/11/10 07:10:37;;;;;;;5.15;4.37;;;;;;;12.62;47.96;101887.88;1747802;81;21029;-64
2021/11/10 07:13:03;;;;;;;5.60;5.00;;;;;;;12.64;47.93;101895.76;1740404;80;21076;-64
2021/11/10 07:15:30;;;;;;;7.83;5.12;;;;;;;12.64;47.91;101885.93;1782503;80;21041;-64
2021/11/10 07:17:57;;;;;;;5.05;4.55;;;;;;;12.66;47.90;101881.81;1769128;79;21100;-64
2021/11/10 07:20:23;;;;;;;6.25;5.28;;;;;;;12.68;47.88;101882.52;1786541;80;21023;-65
2021/11/10 07:22:53;;;;;;;5.33;4.58;;;;;;;12.69;47.88;101885.06;1786463;80;21022;-64
2021/11/10 07:25:19;;;;;;;6.42;4.97;;;;;;;12.70;47.85;101888.08;1785413;80;21966;-65
2021/11/10 07:27:45;;;;;;;6.75;5.30;;;;;;;12.73;47.85;101890.50;1785910;80;21026;-65
2021/11/10 07:31:48;;;;;;;6.15;5.55;;;;;;;12.80;47.82;101885.47;1889469;75;28513;-63
2021/11/10 07:34:14;;;;;;;6.17;4.78;;;;;;;12.76;47.82;101884.88;1858017;77;21000;-64
2021/11/10 07:36:41;;;;;;;7.30;4.83;;;;;;;12.78;47.75;101870.09;1827085;77;21102;-64
2021/11/10 07:39:07;;;;;;;5.05;4.55;;;;;;;12.80;47.74;101860.13;1836322;77;21020;-64
2021/11/10 07:41:35;;;;;;;4.83;4.33;;;;;;;12.82;47.72;101858.67;1828260;77;20978;-63
2021/11/10 07:44:02;;;;;;;5.47;4.87;;;;;;;12.82;47.72;101855.52;1814474;77;21038;-64
2021/11/10 07:46:32;;;;;;;6.17;4.97;;;;;;;12.86;47.68;101855.60;1839616;77;21493;-64
2021/11/10 07:49:01;;;;;;;5.42;4.80;;;;;;;12.88;47.70;101864.81;1842241;77;20993;-66
2021/11/10 07:51:27;;;;;;;6.22;5.00;;;;;;;12.90;47.68;101858.39;1859827;77;20960;-65
2021/11/10 07:53:56;;;;;;;6.37;4.62;;;;;;;12.92;47.72;101857.77;1860170;77;21016;-64
2021/11/10 07:56:23;;;;;;;5.67;4.85;;;;;;;12.96;47.70;101863.66;1849582;77;21048;-65
2021/11/10 07:58:49;;;;;;;5.80;5.20;;;;;;;12.99;47.65;101862.08;1843495;77;21012;-64
2021/11/10 08:01:16;;;;;;;6.12;4.92;;;;;;;13.02;47.60;101872.50;1824995;77;21136;-64
2021/11/10 08:03:42;;;;;;;7.33;5.35;;;;;;;13.05;47.57;101882.89;1831066;77;21049;-65
2021/11/10 08:06:09;;;;;;;6.33;5.15;;;;;;;13.09;47.52;101888.31;1854045;77;21576;-64
2021/11/10 08:08:35;;;;;;;6.33;5.20;;;;;;;13.12;47.47;101885.89;1848326;77;21021;-65
2021/11/10 08:11:02;;;;;;;6.00;5.35;;;;;;;13.16;47.44;101889.48;1854237;77;21032;-65
2021/11/10 08:13:29;;;;;;;5.03;4.53;;;;;;;13.21;47.41;101891.73;1836362;77;21807;-65
2021/11/10 08:15:57;;;;;;;7.12;5.58;;;;;;;13.26;47.34;101886.86;1843673;77;20977;-67
2021/11/10 08:18:25;;;;;;;7.00;5.62;;;;;;;13.31;47.31;101883.84;1832305;77;20997;-65
2021/11/10 08:20:51;;;;;;;6.50;5.60;;;;;;;13.36;47.28;101891.77;1850751;77;21489;-64
2021/11/10 08:23:22;;;;;;;6.22;5.17;;;;;;;13.42;47.24;101893.56;1855944;77;21048;-65
2021/11/10 08:25:50;;;;;;;7.05;5.17;;;;;;;13.48;47.19;101896.56;1832180;77;21240;-65
2021/11/10 08:28:17;;;;;;;6.55;5.30;;;;;;;13.54;47.13;101891.14;1847849;77;21569;-65
2021/11/10 08:30:45;;;;;;;6.58;5.37;;;;;;;13.60;47.09;101891.96;1847265;77;21075;-66
2021/11/10 08:33:12;;;;;;;7.67;5.37;;;;;;;13.68;47.03;101898.80;1852219;77;21109;-65
2021/11/10 08:35:39;;;;;;;5.95;5.17;;;;;;;13.75;47.00;101905.77;1832642;77;21041;-64
2021/11/10 08:38:05;;;;;;;6.72;5.78;;;;;;;13.82;46.96;101900.73;1818433;77;21265;-66
2021/11/10 08:40:31;;;;;;;6.28;5.03;;;;;;;13.89;46.88;101896.05;1845364;77;21002;-65
2021/11/10 08:42:58;;;;;;;5.47;4.95;;;;;;;13.96;46.80;101895.86;1840369;77;21040;-65
2021/11/10 08:45:26;;;;;;;6.45;5.78;;;;;;;14.05;46.78;101889.33;1834114;77;21400;-65
2021/11/10 08:47:53;;;;;;;5.97;5.20;;;;;;;14.12;46.74;101897.16;1846810;77;21024;-65
2021/11/10 08:50:21;;;;;;;6.17;5.58;;;;;;;14.21;46.73;101892.78;1825217;77;21489;-65
2021/11/10 08:52:48;;;;;;;6.15;5.05;;;;;;;14.29;46.72;101887.58;1830403;77;21013;-64
2021/11/10 08:55:15;;;;;;;5.72;5.03;;;;;;;14.36;46.65;101881.53;1803137;77;21019;-66
2021/11/10 08:57:43;;;;;;;6.12;5.45;;;;;;;14.44;46.61;101878.15;1852011;77;21033;-66
2021/11/10 09:00:13;;;;;;;6.75;5.37;;;;;;;14.53;46.55;101883.16;1766377;80;21100;-65
2021/11/10 09:02:39;;;;;;;6.20;5.58;;;;;;;14.61;46.45;101861.92;1765687;79;21167;-65
2021/11/10 09:05:07;;;;;;;6.33;5.45;;;;;;;14.70;46.38;101861.06;1784391;79;21041;-64
2021/11/10 09:07:34;;;;;;;7.20;5.25;;;;;;;14.79;46.26;101866.53;1780653;79;21052;-66
2021/11/10 09:10:02;;;;;;;6.33;5.50;;;;;;;14.87;46.19;101872.88;1768840;79;21568;-65
2021/11/10 09:12:28;;;;;;;6.92;5.35;;;;;;;14.98;46.13;101873.69;1783246;79;21048;-65
2021/11/10 09:14:55;;;;;;;6.33;5.47;;;;;;;15.06;46.01;101869.27;1796633;79;21958;-66
2021/11/10 09:17:21;;;;;;;6.67;5.70;;;;;;;15.16;45.91;101874.59;1775048;79;21548;-66
2021/11/10 09:19:47;;;;;;;6.15;5.55;;;;;;;15.25;45.81;101864.85;1779487;79;21057;-66
2021/11/10 09:22:14;;;;;;;6.03;5.22;;;;;;;15.34;45.67;101861.30;1796374;79;21504;-65
2021/11/10 09:24:40;;;;;;;6.10;5.50;;;;;;;15.43;45.54;101860.42;1780877;79;21037;-66
2021/11/10 09:27:07;;;;;;;6.65;5.03;;;;;;;15.53;45.52;101857.69;1788234;79;21143;-65
2021/11/10 09:29:33;;;;;;;8.00;5.72;;;;;;;15.62;45.47;101857.28;1783399;79;21537;-66
2021/11/10 09:32:01;;;;;;;5.97;5.35;;;;;;;15.69;45.36;101855.69;1772291;79;21096;-66
2021/11/10 09:34:28;;;;;;;6.78;5.67;;;;;;;15.76;45.25;101863.52;1772569;81;21498;-66
2021/11/10 09:36:55;;;;;;;6.08;5.10;;;;;;;15.84;45.22;101858.24;1758939;81;21033;-66
2021/11/10 09:39:23;;;;;;;7.28;5.53;;;;;;;15.91;45.24;101857.95;1793491;78;21150;-64
2021/11/10 09:41:52;;;;;;;5.95;5.35;;;;;;;16.01;45.31;101858.39;1799617;78;20993;-65
2021/11/10 09:44:19;;;;;;;7.10;5.85;;;;;;;16.09;45.41;101854.48;1802026;78;20994;-66
2021/11/10 09:46:45;;;;;;;7.10;5.67;;;;;;;16.20;45.47;101859.58;1800331;78;21024;-66
2021/11/10 09:49:12;;;;;;;6.28;5.47;;;;;;;16.31;45.41;101861.20;1795583;78;21079;-65
2021/11/10 09:51:40;;;;;;;9.48;5.55;;;;;;;16.41;45.53;101859.78;1803017;77;21145;-66
2021/11/10 09:54:06;;;;;;;6.87;6.10;;;;;;;16.50;45.63;101858.34;1783414;78;21088;-65
2021/11/10 09:56:33;;;;;;;6.33;5.72;;;;;;;16.61;45.65;101857.75;1790470;78;21099;-65
2021/11/10 09:59:00;;;;;;;6.62;5.47;;;;;;;16.71;45.82;101861.20;1814232;78;21029;-65
2021/11/10 10:01:26;;;;;;;6.95;4.90;;;;;;;16.81;45.83;101863.27;1802132;78;21024;-65
2021/11/10 10:03:53;;;;;;;6.08;5.37;;;;;;;16.92;45.77;101859.53;1813135;77;21085;-65
2021/11/10 10:06:20;;;;;;;7.95;5.85;;;;;;;17.01;45.57;101847.81;1805275;78;20982;-64
2021/11/10 10:08:48;;;;;;;6.12;5.50;;;;;;;17.10;45.26;101844.18;1792483;77;21084;-66
2021/11/10 10:11:14;;;;;;;7.55;6.00;;;;;;;17.20;44.90;101851.28;1790403;77;21061;-66
2021/11/10 10:13:41;;;;;;;6.45;5.80;;;;;;;17.26;44.63;101847.44;1813507;78;21076;-68
2021/11/10 10:16:09;;;;;;;6.53;5.78;;;;;;;17.32;44.43;101843.78;1747521;80;21373;-66
2021/11/10 10:18:36;;;;;;;7.42;5.37;;;;;;;17.36;44.26;101843.28;1812585;78;22492;-65
2021/11/10 10:21:06;;;;;;;6.80;5.72;;;;;;;17.40;44.12;101840.64;1821033;77;21068;-65
2021/11/10 10:23:37;;;;;;;6.00;5.35;;;;;;;17.43;44.04;101838.95;1792391;77;20996;-64
2021/11/10 10:26:16;;;;;;;6.47;5.45;;;;;;;17.46;43.96;101837.30;1799028;78;21041;-65
2021/11/10 10:28:49;;;;;;;6.53;5.60;;;;;;;17.48;43.91;101825.89;1798198;78;21515;-64
2021/11/10 10:31:18;;;;;;;6.28;5.33;;;;;;;17.49;43.88;101826.21;1814502;77;21021;-65
2021/11/10 10:33:48;;;;;;;6.45;5.53;;;;;;;17.51;43.81;101831.94;1822225;77;21509;-66
2021/11/10 10:36:21;;;;;;;6.67;5.72;;;;;;;17.51;43.75;101829.25;1829261;77;21072;-65
2021/11/10 10:38:58;;;;;;;6.40;5.53;;;;;;;17.51;43.73;101826.56;1828553;77;20982;-64
2021/11/10 10:41:35;;;;;;;6.42;5.65;;;;;;;17.51;43.68;101823.87;1840634;77;21125;-66
2021/11/10 10:44:08;;;;;;;6.12;5.17;;;;;;;17.51;43.65;101831.94;1837188;77;21225;-65
2021/11/10 10:46:39;;;;;;;6.70;5.50;;;;;;;17.52;43.60;101825.55;1827262;77;22205;-66
2021/11/10 10:49:22;;;;;;;5.45;4.90;;;;;;;17.53;43.58;101823.21;1840734;77;21014;-65
2021/11/10 10:51:50;;;;;;;7.22;5.80;;;;;;;17.53;43.50;101821.86;1841528;77;21041;-65
2021/11/10 10:54:18;;;;;;;6.30;5.28;;;;;;;17.55;43.40;101821.20;1828480;77;21082;-66
2021/11/10 10:56:59;;;;;;;7.08;5.78;;;;;;;17.58;43.38;101823.58;1833749;77;21074;-65
2021/11/10 10:59:25;;;;;;;6.53;5.50;;;;;;;17.62;43.33;101830.30;1836803;77;21037;-65
2021/11/10 11:01:56;;;;;;;6.90;5.47;;;;;;;17.67;43.25;101832.84;1836661;77;21068;-65
2021/11/10 11:04:28;;;;;;;6.70;6.00;;;;;;;17.73;43.22;101822.41;1841063;77;21013;-65
2021/11/10 11:07:05;;;;;;;6.60;5.90;;;;;;;17.79;43.13;101815.03;1822949;77;22815;-65
2021/11/10 11:09:42;;;;;;;6.05;5.10;;;;;;;17.85;43.09;101812.56;1766902;79;21067;-64
2021/11/10 11:12:26;;;;;;;6.00;5.20;;;;;;;17.93;42.98;101813.59;1832555;77;21038;-65
2021/11/10 11:14:55;;;;;;;5.65;4.75;;;;;;;17.99;42.98;101814.27;1829959;77;21543;-64
2021/11/10 11:17:32;;;;;;;5.62;5.10;;;;;;;18.04;42.92;101817.28;1776713;80;21022;-65
2021/11/10 11:20:15;;;;;;;5.80;5.20;;;;;;;18.09;42.90;101809.56;1849711;77;21109;-65
2021/11/10 11:22:47;;;;;;;5.75;5.25;;;;;;;18.14;42.86;101813.95;1840718;77;21029;-65
2021/11/10 11:25:19;;;;;;;5.72;5.12;;;;;;;18.20;42.83;101814.62;1852413;77;21014;-65
2021/11/10 11:27:56;;;;;;;5.53;4.70;;;;;;;18.26;42.80;101815.80;1849020;77;21477;-65